Airfield :
LOGIN :

Register | Disclaimer

   EN    FR    IT 

 










Legend :    VFR   Marginal VFR   IFR   Intensive IFR   Very Intensive IFR
Visi :
Ceiling :
>= 8 km
>= 3000ft
5 to 8 km
1000 to 3000 ft
1500m to 5 km
500 to 1000 ft
800 to 1500m
200 to 500 ft
< 800m
< 200 ft
Symbols :   Thunderstorms  Fog  Heavy snow  Heavy precipitations  Wind > 20 kt
SIGMETs :     Misc.  Thunderstorms  Icing  Turbulence  Mountain Waves  Volcanic Ashes







- Airport Elevation : 322 ft


LHSN - Szolnok

CURRENT METAR :
  • 210245Z 00000KT 0300 R20/0250U FG VV002 06/06 Q1017 NOSIG RMK RED

EXPIRED METARs :
  • 210215Z 33002KT 0350 R20/0275N FG BKN002 05/05 Q1017 NOSIG RMK RED
  • 210145Z 34002KT 0300 R20/0275D FG SCT002 06/06 Q1017 NOSIG RMK RED
  • 210115Z 33002KT 0600 R20/0200V0325U FG SCT005 06/06 Q1017 NOSIG RMK RED
  • 210045Z 34002KT 0600 R20/0450V1000D FG SCT005 06/06 Q1017 NOSIG RMK RED
  • 210015Z 34002KT 0600 R20/0275V0500U FG SCT005 07/07 Q1017 NOSIG RMK RED
  • 210008Z 34002KT 0600 R20/0275V1500D FG SCT005 07/07 Q1017 RMK RED

TAF TAF LHSN
Valid from the 21 at 03:00 until the 21 at 12:00 UTC


210215Z 2103/2112 VRB02KT 0600 FG BKN005
BECMG 2103/2106 24004KT
TEMPO 2103/2106 0150 FG OVC002
BECMG 2106/2108 5000 BR SCT015
BECMG 2109/2111 CAVOK
No reported NOTAMs for that airfield.



MET'MAP, your aeronautical weather chart ! - Copyright ORBIFLY December 2007 - Disclaimer

ORBIFLY MET'MAP TEAM :

Programming & Development : Alexandra Zaïnal
Concept & Development : Baudouin d'Aumeries
Co-Development & Prog : Marc-Olivier Méhu
Technical & hardware support : Manuel Goepfert

Contact : metmap@orbifly.com




SOURCES & CREDITS :

   NOAA